Washington, District of Columbia
Traffic Map
Current Weather Conditions
Washington, District of Columbia
Overcast
Overcast
77°
Feels Like: 79°
Wind Chill: 77° Ceiling: 25000
Heat Index: 79° Visibility: 10mi
Dew Point: 68° Wind: 13mph
Humidity: 74% Direction: 60° (ENE)
Pressure: 30.02in Gusts: 0mph
Raw Report DataKDCA 261552Z 06011KT 10SM SCT019 OVC250 25/20 A3002 RMK AO2 SLP164 T02500200
Traffic Incident Summary
Active as of:
Severity:
Category:
InformationThere was an issue retrieving the traffic information for this location. Please try a different location or try again shortly.
Advertisements